sensor_id;sensor_type;location;lat;lon;timestamp;temperature;humidity
5192;DHT22;2615;44.524;11.284;2023-09-07T00:01:51;21.80;48.20
5192;DHT22;2615;44.524;11.284;2023-09-07T00:04:20;21.80;48.30
5192;DHT22;2615;44.524;11.284;2023-09-07T00:06:51;21.80;48.30
5192;DHT22;2615;44.524;11.284;2023-09-07T00:09:19;21.70;48.30
5192;DHT22;2615;44.524;11.284;2023-09-07T00:11:48;21.70;48.40
5192;DHT22;2615;44.524;11.284;2023-09-07T00:14:16;21.70;48.40
5192;DHT22;2615;44.524;11.284;2023-09-07T00:16:45;21.70;48.40
5192;DHT22;2615;44.524;11.284;2023-09-07T00:19:13;21.60;48.40
5192;DHT22;2615;44.524;11.284;2023-09-07T00:21:41;21.60;48.40
5192;DHT22;2615;44.524;11.284;2023-09-07T00:24:11;21.60;48.40
5192;DHT22;2615;44.524;11.284;2023-09-07T00:26:39;21.60;48.50
5192;DHT22;2615;44.524;11.284;2023-09-07T00:29:07;21.60;48.50
5192;DHT22;2615;44.524;11.284;2023-09-07T00:31:35;21.60;48.50
5192;DHT22;2615;44.524;11.284;2023-09-07T00:34:03;21.50;48.50
5192;DHT22;2615;44.524;11.284;2023-09-07T00:36:32;21.50;48.50
5192;DHT22;2615;44.524;11.284;2023-09-07T00:39:00;21.50;48.50
5192;DHT22;2615;44.524;11.284;2023-09-07T00:41:29;21.50;48.60
5192;DHT22;2615;44.524;11.284;2023-09-07T00:43:57;21.50;48.60
5192;DHT22;2615;44.524;11.284;2023-09-07T00:46:25;21.40;48.60
5192;DHT22;2615;44.524;11.284;2023-09-07T00:48:54;21.40;48.60
5192;DHT22;2615;44.524;11.284;2023-09-07T00:51:24;21.40;48.70
5192;DHT22;2615;44.524;11.284;2023-09-07T00:53:52;21.40;48.70
5192;DHT22;2615;44.524;11.284;2023-09-07T00:56:21;21.40;48.70
5192;DHT22;2615;44.524;11.284;2023-09-07T00:58:52;21.40;48.70
5192;DHT22;2615;44.524;11.284;2023-09-07T01:01:21;21.30;48.70
5192;DHT22;2615;44.524;11.284;2023-09-07T01:03:50;21.30;48.80
5192;DHT22;2615;44.524;11.284;2023-09-07T01:06:26;21.30;48.80
5192;DHT22;2615;44.524;11.284;2023-09-07T01:08:58;21.20;48.80
5192;DHT22;2615;44.524;11.284;2023-09-07T01:11:35;21.20;48.80
5192;DHT22;2615;44.524;11.284;2023-09-07T01:14:05;21.20;48.90
5192;DHT22;2615;44.524;11.284;2023-09-07T01:16:34;21.20;48.90
5192;DHT22;2615;44.524;11.284;2023-09-07T01:19:06;21.20;49.00
5192;DHT22;2615;44.524;11.284;2023-09-07T01:21:37;21.10;48.90
5192;DHT22;2615;44.524;11.284;2023-09-07T01:24:07;21.10;49.00
5192;DHT22;2615;44.524;11.284;2023-09-07T01:26:36;21.10;49.00
5192;DHT22;2615;44.524;11.284;2023-09-07T01:29:05;21.10;49.00
5192;DHT22;2615;44.524;11.284;2023-09-07T01:31:35;21.10;49.10
5192;DHT22;2615;44.524;11.284;2023-09-07T01:34:04;21.00;49.10
5192;DHT22;2615;44.524;11.284;2023-09-07T01:36:33;21.00;49.10
5192;DHT22;2615;44.524;11.284;2023-09-07T01:39:03;21.00;49.10
5192;DHT22;2615;44.524;11.284;2023-09-07T01:41:32;21.00;49.20
5192;DHT22;2615;44.524;11.284;2023-09-07T01:44:01;20.90;49.10
5192;DHT22;2615;44.524;11.284;2023-09-07T01:46:29;20.90;49.20
5192;DHT22;2615;44.524;11.284;2023-09-07T01:48:57;20.80;49.20
5192;DHT22;2615;44.524;11.284;2023-09-07T01:51:26;20.80;48.80
5192;DHT22;2615;44.524;11.284;2023-09-07T01:53:54;20.80;49.30
5192;DHT22;2615;44.524;11.284;2023-09-07T01:56:24;20.80;49.40
5192;DHT22;2615;44.524;11.284;2023-09-07T01:58:52;20.70;49.40
5192;DHT22;2615;44.524;11.284;2023-09-07T02:01:24;20.70;49.40
5192;DHT22;2615;44.524;11.284;2023-09-07T02:03:53;20.70;49.40
5192;DHT22;2615;44.524;11.284;2023-09-07T02:06:21;20.70;49.40
5192;DHT22;2615;44.524;11.284;2023-09-07T02:08:49;20.70;49.50
5192;DHT22;2615;44.524;11.284;2023-09-07T02:11:17;20.70;49.50
5192;DHT22;2615;44.524;11.284;2023-09-07T02:13:48;20.70;49.60
5192;DHT22;2615;44.524;11.284;2023-09-07T02:16:16;20.60;49.50
5192;DHT22;2615;44.524;11.284;2023-09-07T02:18:45;20.60;49.60
5192;DHT22;2615;44.524;11.284;2023-09-07T02:21:14;20.60;49.60
5192;DHT22;2615;44.524;11.284;2023-09-07T02:23:42;20.60;49.70
5192;DHT22;2615;44.524;11.284;2023-09-07T02:26:10;20.60;49.70
5192;DHT22;2615;44.524;11.284;2023-09-07T02:28:38;20.50;49.60
5192;DHT22;2615;44.524;11.284;2023-09-07T02:31:08;20.50;49.80
5192;DHT22;2615;44.524;11.284;2023-09-07T02:33:36;20.50;49.80
5192;DHT22;2615;44.524;11.284;2023-09-07T02:36:04;20.50;49.80
5192;DHT22;2615;44.524;11.284;2023-09-07T02:38:33;20.50;49.80
5192;DHT22;2615;44.524;11.284;2023-09-07T02:41:01;20.50;49.90
5192;DHT22;2615;44.524;11.284;2023-09-07T02:43:30;20.50;49.90
5192;DHT22;2615;44.524;11.284;2023-09-07T02:45:58;20.50;49.90
5192;DHT22;2615;44.524;11.284;2023-09-07T02:48:27;20.50;50.00
5192;DHT22;2615;44.524;11.284;2023-09-07T02:50:56;20.40;49.90
5192;DHT22;2615;44.524;11.284;2023-09-07T02:53:25;20.40;50.00
5192;DHT22;2615;44.524;11.284;2023-09-07T02:55:53;20.40;50.00
5192;DHT22;2615;44.524;11.284;2023-09-07T02:58:22;20.40;50.00
5192;DHT22;2615;44.524;11.284;2023-09-07T03:00:50;20.40;50.00
5192;DHT22;2615;44.524;11.284;2023-09-07T03:03:17;20.40;50.10
5192;DHT22;2615;44.524;11.284;2023-09-07T03:05:47;20.40;50.10
5192;DHT22;2615;44.524;11.284;2023-09-07T03:08:15;20.40;50.10
5192;DHT22;2615;44.524;11.284;2023-09-07T03:10:44;20.30;50.10
5192;DHT22;2615;44.524;11.284;2023-09-07T03:13:12;20.30;50.20
5192;DHT22;2615;44.524;11.284;2023-09-07T03:15:40;20.30;50.20
5192;DHT22;2615;44.524;11.284;2023-09-07T03:18:08;20.20;50.20
5192;DHT22;2615;44.524;11.284;2023-09-07T03:20:36;20.20;50.20
5192;DHT22;2615;44.524;11.284;2023-09-07T03:23:06;20.20;50.30
5192;DHT22;2615;44.524;11.284;2023-09-07T03:25:34;20.20;49.80
5192;DHT22;2615;44.524;11.284;2023-09-07T03:28:03;20.20;50.40
5192;DHT22;2615;44.524;11.284;2023-09-07T03:30:32;20.20;51.00
5192;DHT22;2615;44.524;11.284;2023-09-07T03:33:00;20.20;50.40
5192;DHT22;2615;44.524;11.284;2023-09-07T03:35:30;20.20;50.40
5192;DHT22;2615;44.524;11.284;2023-09-07T03:37:58;20.20;50.50
5192;DHT22;2615;44.524;11.284;2023-09-07T03:40:27;20.10;50.40
5192;DHT22;2615;44.524;11.284;2023-09-07T03:42:55;20.10;50.40
5192;DHT22;2615;44.524;11.284;2023-09-07T03:45:24;20.10;50.40
5192;DHT22;2615;44.524;11.284;2023-09-07T03:47:52;20.10;50.40
5192;DHT22;2615;44.524;11.284;2023-09-07T03:50:20;20.10;50.50
5192;DHT22;2615;44.524;11.284;2023-09-07T03:52:48;20.10;50.50
5192;DHT22;2615;44.524;11.284;2023-09-07T03:55:17;20.00;50.50
5192;DHT22;2615;44.524;11.284;2023-09-07T03:57:50;20.00;50.50
5192;DHT22;2615;44.524;11.284;2023-09-07T04:00:18;20.00;50.60
5192;DHT22;2615;44.524;11.284;2023-09-07T04:02:46;20.00;50.60
5192;DHT22;2615;44.524;11.284;2023-09-07T04:05:15;20.00;50.60
5192;DHT22;2615;44.524;11.284;2023-09-07T04:07:43;20.00;50.60
5192;DHT22;2615;44.524;11.284;2023-09-07T04:10:12;20.00;50.60
5192;DHT22;2615;44.524;11.284;2023-09-07T04:12:40;20.00;50.70
5192;DHT22;2615;44.524;11.284;2023-09-07T04:15:10;20.00;50.70
5192;DHT22;2615;44.524;11.284;2023-09-07T04:17:39;19.90;50.70
5192;DHT22;2615;44.524;11.284;2023-09-07T04:20:09;19.90;50.70
5192;DHT22;2615;44.524;11.284;2023-09-07T04:22:38;19.90;50.80
5192;DHT22;2615;44.524;11.284;2023-09-07T04:25:07;19.90;50.80
5192;DHT22;2615;44.524;11.284;2023-09-07T04:27:36;19.90;50.80
5192;DHT22;2615;44.524;11.284;2023-09-07T04:30:06;19.90;50.80
5192;DHT22;2615;44.524;11.284;2023-09-07T04:32:35;19.90;51.40
5192;DHT22;2615;44.524;11.284;2023-09-07T04:35:04;19.90;50.90
5192;DHT22;2615;44.524;11.284;2023-09-07T04:37:33;19.90;50.90
5192;DHT22;2615;44.524;11.284;2023-09-07T04:40:01;19.90;50.90
5192;DHT22;2615;44.524;11.284;2023-09-07T04:42:29;19.80;50.90
5192;DHT22;2615;44.524;11.284;2023-09-07T04:44:57;19.80;50.90
5192;DHT22;2615;44.524;11.284;2023-09-07T04:47:25;19.90;51.00
5192;DHT22;2615;44.524;11.284;2023-09-07T04:49:55;19.90;51.10
5192;DHT22;2615;44.524;11.284;2023-09-07T04:52:23;19.90;51.00
5192;DHT22;2615;44.524;11.284;2023-09-07T04:54:51;19.90;51.10
5192;DHT22;2615;44.524;11.284;2023-09-07T04:57:19;19.90;51.10
5192;DHT22;2615;44.524;11.284;2023-09-07T04:59:47;19.90;51.10
5192;DHT22;2615;44.524;11.284;2023-09-07T05:02:16;19.90;51.10
5192;DHT22;2615;44.524;11.284;2023-09-07T05:04:44;19.90;51.10
5192;DHT22;2615;44.524;11.284;2023-09-07T05:07:13;19.90;51.10
5192;DHT22;2615;44.524;11.284;2023-09-07T05:09:42;19.90;51.10
5192;DHT22;2615;44.524;11.284;2023-09-07T05:12:10;19.90;51.10
5192;DHT22;2615;44.524;11.284;2023-09-07T05:14:38;20.00;51.20
5192;DHT22;2615;44.524;11.284;2023-09-07T05:17:06;20.00;51.10
5192;DHT22;2615;44.524;11.284;2023-09-07T05:19:34;20.00;51.10
5192;DHT22;2615;44.524;11.284;2023-09-07T05:22:03;20.10;51.20
5192;DHT22;2615;44.524;11.284;2023-09-07T05:24:32;20.10;51.20
5192;DHT22;2615;44.524;11.284;2023-09-07T05:27:00;20.10;51.10
5192;DHT22;2615;44.524;11.284;2023-09-07T05:29:30;20.20;51.20
5192;DHT22;2615;44.524;11.284;2023-09-07T05:31:58;20.20;51.10
5192;DHT22;2615;44.524;11.284;2023-09-07T05:34:29;20.30;51.20
5192;DHT22;2615;44.524;11.284;2023-09-07T05:36:57;20.30;51.20
5192;DHT22;2615;44.524;11.284;2023-09-07T05:39:25;20.30;51.10
5192;DHT22;2615;44.524;11.284;2023-09-07T05:41:55;20.40;51.20
5192;DHT22;2615;44.524;11.284;2023-09-07T05:44:23;20.40;51.10
5192;DHT22;2615;44.524;11.284;2023-09-07T05:46:51;20.50;51.10
5192;DHT22;2615;44.524;11.284;2023-09-07T05:49:21;20.50;51.10
5192;DHT22;2615;44.524;11.284;2023-09-07T05:51:49;20.60;51.20
5192;DHT22;2615;44.524;11.284;2023-09-07T05:54:17;20.70;51.20
5192;DHT22;2615;44.524;11.284;2023-09-07T05:56:45;20.70;51.20
5192;DHT22;2615;44.524;11.284;2023-09-07T05:59:15;20.80;51.20
5192;DHT22;2615;44.524;11.284;2023-09-07T06:01:43;20.80;51.10
5192;DHT22;2615;44.524;11.284;2023-09-07T06:04:11;20.90;51.20
5192;DHT22;2615;44.524;11.284;2023-09-07T06:06:39;20.90;51.10
5192;DHT22;2615;44.524;11.284;2023-09-07T06:09:07;20.90;51.10
5192;DHT22;2615;44.524;11.284;2023-09-07T06:11:35;21.00;51.10
5192;DHT22;2615;44.524;11.284;2023-09-07T06:14:04;21.00;51.10
5192;DHT22;2615;44.524;11.284;2023-09-07T06:16:33;21.10;51.10
5192;DHT22;2615;44.524;11.284;2023-09-07T06:19:01;21.20;51.10
5192;DHT22;2615;44.524;11.284;2023-09-07T06:21:30;21.30;51.10
5192;DHT22;2615;44.524;11.284;2023-09-07T06:23:58;21.40;51.00
5192;DHT22;2615;44.524;11.284;2023-09-07T06:26:26;21.40;51.00
5192;DHT22;2615;44.524;11.284;2023-09-07T06:28:54;21.50;51.00
5192;DHT22;2615;44.524;11.284;2023-09-07T06:31:22;21.50;50.90
5192;DHT22;2615;44.524;11.284;2023-09-07T06:33:52;21.60;50.90
5192;DHT22;2615;44.524;11.284;2023-09-07T06:36:20;21.60;50.90
5192;DHT22;2615;44.524;11.284;2023-09-07T06:39:07;21.70;50.90
5192;DHT22;2615;44.524;11.284;2023-09-07T06:41:36;21.80;50.90
5192;DHT22;2615;44.524;11.284;2023-09-07T06:44:04;21.90;50.90
5192;DHT22;2615;44.524;11.284;2023-09-07T06:46:32;21.90;50.90
5192;DHT22;2615;44.524;11.284;2023-09-07T06:49:02;22.00;50.90
5192;DHT22;2615;44.524;11.284;2023-09-07T06:51:30;22.20;51.00
5192;DHT22;2615;44.524;11.284;2023-09-07T06:53:59;22.30;50.90
5192;DHT22;2615;44.524;11.284;2023-09-07T06:56:27;22.30;50.80
5192;DHT22;2615;44.524;11.284;2023-09-07T06:58:56;22.40;50.80
5192;DHT22;2615;44.524;11.284;2023-09-07T07:01:25;22.50;50.70
5192;DHT22;2615;44.524;11.284;2023-09-07T07:03:53;22.50;50.70
5192;DHT22;2615;44.524;11.284;2023-09-07T07:06:23;22.60;50.70
5192;DHT22;2615;44.524;11.284;2023-09-07T07:08:51;22.70;50.70
5192;DHT22;2615;44.524;11.284;2023-09-07T07:11:20;22.80;50.70
5192;DHT22;2615;44.524;11.284;2023-09-07T07:13:48;22.90;50.60
5192;DHT22;2615;44.524;11.284;2023-09-07T07:16:16;23.00;50.60
5192;DHT22;2615;44.524;11.284;2023-09-07T07:18:45;23.00;50.60
5192;DHT22;2615;44.524;11.284;2023-09-07T07:21:13;23.20;50.60
5192;DHT22;2615;44.524;11.284;2023-09-07T07:23:43;23.30;50.70
5192;DHT22;2615;44.524;11.284;2023-09-07T07:26:11;23.40;50.60
5192;DHT22;2615;44.524;11.284;2023-09-07T07:28:39;23.50;50.60
5192;DHT22;2615;44.524;11.284;2023-09-07T07:31:08;23.60;50.60
5192;DHT22;2615;44.524;11.284;2023-09-07T07:33:36;23.70;50.50
5192;DHT22;2615;44.524;11.284;2023-09-07T07:36:05;23.70;50.50
5192;DHT22;2615;44.524;11.284;2023-09-07T07:38:33;23.80;50.50
5192;DHT22;2615;44.524;11.284;2023-09-07T07:41:03;24.00;51.10
5192;DHT22;2615;44.524;11.284;2023-09-07T07:43:32;24.10;50.50
5192;DHT22;2615;44.524;11.284;2023-09-07T07:46:01;24.20;50.50
5192;DHT22;2615;44.524;11.284;2023-09-07T07:48:30;24.30;50.50
5192;DHT22;2615;44.524;11.284;2023-09-07T07:51:02;24.30;50.40
5192;DHT22;2615;44.524;11.284;2023-09-07T07:53:31;24.40;50.50
5192;DHT22;2615;44.524;11.284;2023-09-07T07:55:59;24.50;50.40
5192;DHT22;2615;44.524;11.284;2023-09-07T07:58:29;24.60;50.50
5192;DHT22;2615;44.524;11.284;2023-09-07T08:00:57;24.70;50.50
5192;DHT22;2615;44.524;11.284;2023-09-07T08:03:25;24.80;50.40
5192;DHT22;2615;44.524;11.284;2023-09-07T08:05:54;24.90;50.40
5192;DHT22;2615;44.524;11.284;2023-09-07T08:08:22;25.00;50.40
5192;DHT22;2615;44.524;11.284;2023-09-07T08:10:50;25.00;50.40
5192;DHT22;2615;44.524;11.284;2023-09-07T08:13:18;25.10;50.40
5192;DHT22;2615;44.524;11.284;2023-09-07T08:15:48;25.20;50.40
5192;DHT22;2615;44.524;11.284;2023-09-07T08:18:17;25.20;50.30
5192;DHT22;2615;44.524;11.284;2023-09-07T08:20:45;25.30;50.30
5192;DHT22;2615;44.524;11.284;2023-09-07T08:23:13;25.30;50.30
5192;DHT22;2615;44.524;11.284;2023-09-07T08:25:41;25.30;50.20
5192;DHT22;2615;44.524;11.284;2023-09-07T08:28:13;25.40;50.30
5192;DHT22;2615;44.524;11.284;2023-09-07T08:30:42;25.40;50.30
5192;DHT22;2615;44.524;11.284;2023-09-07T08:33:12;25.40;50.30
5192;DHT22;2615;44.524;11.284;2023-09-07T08:35:40;25.40;50.30
5192;DHT22;2615;44.524;11.284;2023-09-07T08:38:11;25.40;50.30
5192;DHT22;2615;44.524;11.284;2023-09-07T08:40:40;25.40;50.30
5192;DHT22;2615;44.524;11.284;2023-09-07T08:43:09;25.50;50.30
5192;DHT22;2615;44.524;11.284;2023-09-07T08:45:43;25.50;50.30
5192;DHT22;2615;44.524;11.284;2023-09-07T08:48:17;25.50;50.20
5192;DHT22;2615;44.524;11.284;2023-09-07T08:50:48;25.50;50.20
5192;DHT22;2615;44.524;11.284;2023-09-07T08:53:19;25.60;50.30
5192;DHT22;2615;44.524;11.284;2023-09-07T08:55:48;25.60;50.20
5192;DHT22;2615;44.524;11.284;2023-09-07T08:58:16;25.70;50.20
5192;DHT22;2615;44.524;11.284;2023-09-07T09:00:44;25.70;50.20
5192;DHT22;2615;44.524;11.284;2023-09-07T09:03:13;25.70;50.20
5192;DHT22;2615;44.524;11.284;2023-09-07T09:05:43;25.80;50.20
5192;DHT22;2615;44.524;11.284;2023-09-07T09:08:12;25.80;50.20
5192;DHT22;2615;44.524;11.284;2023-09-07T09:10:40;25.80;50.10
5192;DHT22;2615;44.524;11.284;2023-09-07T09:13:08;25.90;50.20
5192;DHT22;2615;44.524;11.284;2023-09-07T09:15:38;25.90;50.20
5192;DHT22;2615;44.524;11.284;2023-09-07T09:18:10;26.00;50.20
5192;DHT22;2615;44.524;11.284;2023-09-07T09:20:39;26.10;50.20
5192;DHT22;2615;44.524;11.284;2023-09-07T09:23:10;26.10;50.20
5192;DHT22;2615;44.524;11.284;2023-09-07T09:25:40;26.20;50.20
5192;DHT22;2615;44.524;11.284;2023-09-07T09:28:09;26.30;50.10
5192;DHT22;2615;44.524;11.284;2023-09-07T09:30:37;26.50;50.10
5192;DHT22;2615;44.524;11.284;2023-09-07T09:33:06;26.60;50.10
5192;DHT22;2615;44.524;11.284;2023-09-07T09:35:37;26.70;49.90
5192;DHT22;2615;44.524;11.284;2023-09-07T09:38:06;26.90;49.90
5192;DHT22;2615;44.524;11.284;2023-09-07T09:40:35;27.00;49.80
5192;DHT22;2615;44.524;11.284;2023-09-07T09:43:05;27.20;49.70
5192;DHT22;2615;44.524;11.284;2023-09-07T09:45:33;27.40;49.60
5192;DHT22;2615;44.524;11.284;2023-09-07T09:48:03;27.60;49.50
5192;DHT22;2615;44.524;11.284;2023-09-07T09:50:33;27.80;49.30
5192;DHT22;2615;44.524;11.284;2023-09-07T09:53:05;28.10;49.20
5192;DHT22;2615;44.524;11.284;2023-09-07T09:55:36;28.30;48.90
5192;DHT22;2615;44.524;11.284;2023-09-07T09:58:05;28.60;48.70
5192;DHT22;2615;44.524;11.284;2023-09-07T10:00:33;28.90;48.60
5192;DHT22;2615;44.524;11.284;2023-09-07T10:03:08;29.20;48.30
5192;DHT22;2615;44.524;11.284;2023-09-07T10:05:39;29.50;48.10
5192;DHT22;2615;44.524;11.284;2023-09-07T10:08:09;29.80;47.80
5192;DHT22;2615;44.524;11.284;2023-09-07T10:10:43;30.10;47.50
5192;DHT22;2615;44.524;11.284;2023-09-07T10:13:14;30.40;47.20
5192;DHT22;2615;44.524;11.284;2023-09-07T10:15:43;30.70;46.90
5192;DHT22;2615;44.524;11.284;2023-09-07T10:18:13;31.10;46.60
5192;DHT22;2615;44.524;11.284;2023-09-07T10:20:54;31.40;46.20
5192;DHT22;2615;44.524;11.284;2023-09-07T10:23:23;31.80;45.90
5192;DHT22;2615;44.524;11.284;2023-09-07T10:25:53;32.20;45.60
5192;DHT22;2615;44.524;11.284;2023-09-07T10:28:23;32.60;45.20
5192;DHT22;2615;44.524;11.284;2023-09-07T10:31:02;33.00;44.80
5192;DHT22;2615;44.524;11.284;2023-09-07T10:33:34;33.40;44.20
5192;DHT22;2615;44.524;11.284;2023-09-07T10:36:04;33.80;43.90
5192;DHT22;2615;44.524;11.284;2023-09-07T10:38:33;34.20;43.50
5192;DHT22;2615;44.524;11.284;2023-09-07T10:41:04;34.60;43.00
5192;DHT22;2615;44.524;11.284;2023-09-07T10:43:33;35.00;42.50
5192;DHT22;2615;44.524;11.284;2023-09-07T10:46:02;35.30;42.10
5192;DHT22;2615;44.524;11.284;2023-09-07T10:48:31;35.50;41.80
5192;DHT22;2615;44.524;11.284;2023-09-07T10:51:00;35.80;41.50
5192;DHT22;2615;44.524;11.284;2023-09-07T10:53:30;36.20;41.00
5192;DHT22;2615;44.524;11.284;2023-09-07T10:55:59;36.50;40.70
5192;DHT22;2615;44.524;11.284;2023-09-07T10:58:33;36.80;40.30
5192;DHT22;2615;44.524;11.284;2023-09-07T11:01:01;37.10;39.90
5192;DHT22;2615;44.524;11.284;2023-09-07T11:03:30;37.40;39.50
5192;DHT22;2615;44.524;11.284;2023-09-07T11:06:00;37.80;39.20
5192;DHT22;2615;44.524;11.284;2023-09-07T11:08:30;38.20;38.80
5192;DHT22;2615;44.524;11.284;2023-09-07T11:11:00;38.50;38.40
5192;DHT22;2615;44.524;11.284;2023-09-07T11:13:29;38.90;38.10
5192;DHT22;2615;44.524;11.284;2023-09-07T11:16:00;39.10;37.60
5192;DHT22;2615;44.524;11.284;2023-09-07T11:18:29;39.40;37.20
5192;DHT22;2615;44.524;11.284;2023-09-07T11:20:57;39.70;36.90
5192;DHT22;2615;44.524;11.284;2023-09-07T11:23:26;39.90;36.60
5192;DHT22;2615;44.524;11.284;2023-09-07T11:25:55;40.10;36.10
5192;DHT22;2615;44.524;11.284;2023-09-07T11:28:24;40.10;35.80
5192;DHT22;2615;44.524;11.284;2023-09-07T11:30:53;40.30;35.70
5192;DHT22;2615;44.524;11.284;2023-09-07T11:33:23;40.40;35.30
5192;DHT22;2615;44.524;11.284;2023-09-07T11:35:52;40.50;35.10
5192;DHT22;2615;44.524;11.284;2023-09-07T11:38:21;40.80;34.90
5192;DHT22;2615;44.524;11.284;2023-09-07T11:40:49;41.10;34.70
5192;DHT22;2615;44.524;11.284;2023-09-07T11:43:17;41.20;34.20
5192;DHT22;2615;44.524;11.284;2023-09-07T11:45:47;41.40;34.00
5192;DHT22;2615;44.524;11.284;2023-09-07T11:48:15;41.50;33.70
5192;DHT22;2615;44.524;11.284;2023-09-07T11:50:45;41.40;33.40
5192;DHT22;2615;44.524;11.284;2023-09-07T11:53:13;41.00;33.40
5192;DHT22;2615;44.524;11.284;2023-09-07T11:55:41;40.90;33.50
5192;DHT22;2615;44.524;11.284;2023-09-07T11:58:10;41.10;33.50
5192;DHT22;2615;44.524;11.284;2023-09-07T12:00:38;41.10;33.10
5192;DHT22;2615;44.524;11.284;2023-09-07T12:03:08;41.20;33.00
5192;DHT22;2615;44.524;11.284;2023-09-07T12:05:36;41.40;32.70
5192;DHT22;2615;44.524;11.284;2023-09-07T12:08:08;41.60;32.50
5192;DHT22;2615;44.524;11.284;2023-09-07T12:10:36;41.70;32.10
5192;DHT22;2615;44.524;11.284;2023-09-07T12:13:04;41.20;32.20
5192;DHT22;2615;44.524;11.284;2023-09-07T12:15:32;40.70;32.50
5192;DHT22;2615;44.524;11.284;2023-09-07T12:18:02;39.90;32.80
5192;DHT22;2615;44.524;11.284;2023-09-07T12:20:30;39.00;33.20
5192;DHT22;2615;44.524;11.284;2023-09-07T12:22:59;38.50;33.80
5192;DHT22;2615;44.524;11.284;2023-09-07T12:25:28;38.30;33.90
5192;DHT22;2615;44.524;11.284;2023-09-07T12:27:56;38.00;33.90
5192;DHT22;2615;44.524;11.284;2023-09-07T12:30:24;38.00;34.00
5192;DHT22;2615;44.524;11.284;2023-09-07T12:32:53;37.90;34.00
5192;DHT22;2615;44.524;11.284;2023-09-07T12:35:21;37.90;34.00
5192;DHT22;2615;44.524;11.284;2023-09-07T12:37:50;37.80;34.00
5192;DHT22;2615;44.524;11.284;2023-09-07T12:40:19;37.50;34.10
5192;DHT22;2615;44.524;11.284;2023-09-07T12:42:48;37.20;34.20
5192;DHT22;2615;44.524;11.284;2023-09-07T12:45:17;37.10;34.30
5192;DHT22;2615;44.524;11.284;2023-09-07T12:47:45;36.80;34.10
5192;DHT22;2615;44.524;11.284;2023-09-07T12:50:13;36.40;34.00
5192;DHT22;2615;44.524;11.284;2023-09-07T12:52:41;36.10;33.90
5192;DHT22;2615;44.524;11.284;2023-09-07T12:55:09;35.80;34.00
5192;DHT22;2615;44.524;11.284;2023-09-07T12:57:38;35.50;34.10
5192;DHT22;2615;44.524;11.284;2023-09-07T13:00:10;35.30;34.20
5192;DHT22;2615;44.524;11.284;2023-09-07T13:02:38;35.20;34.30
5192;DHT22;2615;44.524;11.284;2023-09-07T13:05:07;34.90;34.20
5192;DHT22;2615;44.524;11.284;2023-09-07T13:07:36;34.60;34.40
5192;DHT22;2615;44.524;11.284;2023-09-07T13:10:05;34.40;34.50
5192;DHT22;2615;44.524;11.284;2023-09-07T13:12:33;34.20;34.70
5192;DHT22;2615;44.524;11.284;2023-09-07T13:15:01;33.90;34.70
5192;DHT22;2615;44.524;11.284;2023-09-07T13:17:31;33.70;34.80
5192;DHT22;2615;44.524;11.284;2023-09-07T13:19:59;33.40;34.90
5192;DHT22;2615;44.524;11.284;2023-09-07T13:22:28;33.20;35.10
5192;DHT22;2615;44.524;11.284;2023-09-07T13:24:56;33.00;35.20
5192;DHT22;2615;44.524;11.284;2023-09-07T13:27:24;32.90;35.20
5192;DHT22;2615;44.524;11.284;2023-09-07T13:29:53;32.80;35.40
5192;DHT22;2615;44.524;11.284;2023-09-07T13:32:21;32.80;35.50
5192;DHT22;2615;44.524;11.284;2023-09-07T13:34:51;32.70;35.50
5192;DHT22;2615;44.524;11.284;2023-09-07T13:37:19;32.60;35.50
5192;DHT22;2615;44.524;11.284;2023-09-07T13:39:47;32.40;35.40
5192;DHT22;2615;44.524;11.284;2023-09-07T13:42:15;32.20;35.50
5192;DHT22;2615;44.524;11.284;2023-09-07T13:44:44;32.10;35.60
5192;DHT22;2615;44.524;11.284;2023-09-07T13:47:12;32.00;35.60
5192;DHT22;2615;44.524;11.284;2023-09-07T13:49:40;31.90;35.60
5192;DHT22;2615;44.524;11.284;2023-09-07T13:52:10;31.80;35.60
5192;DHT22;2615;44.524;11.284;2023-09-07T13:54:38;31.80;35.70
5192;DHT22;2615;44.524;11.284;2023-09-07T13:57:06;31.80;35.70
5192;DHT22;2615;44.524;11.284;2023-09-07T13:59:35;31.80;35.70
5192;DHT22;2615;44.524;11.284;2023-09-07T14:02:03;31.80;35.60
5192;DHT22;2615;44.524;11.284;2023-09-07T14:04:31;31.70;35.70
5192;DHT22;2615;44.524;11.284;2023-09-07T14:06:59;31.60;35.70
5192;DHT22;2615;44.524;11.284;2023-09-07T14:09:29;31.60;35.70
5192;DHT22;2615;44.524;11.284;2023-09-07T14:11:57;31.50;35.60
5192;DHT22;2615;44.524;11.284;2023-09-07T14:14:25;31.50;35.70
5192;DHT22;2615;44.524;11.284;2023-09-07T14:16:53;31.50;35.70
5192;DHT22;2615;44.524;11.284;2023-09-07T14:19:24;31.50;35.70
5192;DHT22;2615;44.524;11.284;2023-09-07T14:21:54;31.40;35.60
5192;DHT22;2615;44.524;11.284;2023-09-07T14:24:22;31.40;35.70
5192;DHT22;2615;44.524;11.284;2023-09-07T14:26:52;31.40;35.70
5192;DHT22;2615;44.524;11.284;2023-09-07T14:29:20;31.30;35.70
5192;DHT22;2615;44.524;11.284;2023-09-07T14:31:48;31.30;35.80
5192;DHT22;2615;44.524;11.284;2023-09-07T14:34:16;31.30;35.80
5192;DHT22;2615;44.524;11.284;2023-09-07T14:36:44;31.20;35.80
5192;DHT22;2615;44.524;11.284;2023-09-07T14:39:12;31.20;35.80
5192;DHT22;2615;44.524;11.284;2023-09-07T14:41:40;31.20;35.80
5192;DHT22;2615;44.524;11.284;2023-09-07T14:44:11;31.30;35.90
5192;DHT22;2615;44.524;11.284;2023-09-07T14:46:39;31.20;35.80
5192;DHT22;2615;44.524;11.284;2023-09-07T14:49:08;31.30;35.80
5192;DHT22;2615;44.524;11.284;2023-09-07T14:51:45;31.20;35.70
5192;DHT22;2615;44.524;11.284;2023-09-07T14:54:15;31.20;35.80
5192;DHT22;2615;44.524;11.284;2023-09-07T14:56:44;31.00;35.90
5192;DHT22;2615;44.524;11.284;2023-09-07T14:59:14;30.90;36.10
5192;DHT22;2615;44.524;11.284;2023-09-07T15:01:42;30.80;36.30
5192;DHT22;2615;44.524;11.284;2023-09-07T15:04:16;30.70;36.30
5192;DHT22;2615;44.524;11.284;2023-09-07T15:06:44;30.60;36.20
5192;DHT22;2615;44.524;11.284;2023-09-07T15:09:12;30.60;36.30
5192;DHT22;2615;44.524;11.284;2023-09-07T15:11:40;30.60;36.30
5192;DHT22;2615;44.524;11.284;2023-09-07T15:14:09;30.70;36.30
5192;DHT22;2615;44.524;11.284;2023-09-07T15:16:39;30.70;36.30
5192;DHT22;2615;44.524;11.284;2023-09-07T15:19:07;30.80;36.30
5192;DHT22;2615;44.524;11.284;2023-09-07T15:21:36;30.80;36.30
5192;DHT22;2615;44.524;11.284;2023-09-07T15:24:05;30.60;36.20
5192;DHT22;2615;44.524;11.284;2023-09-07T15:26:40;30.50;36.30
5192;DHT22;2615;44.524;11.284;2023-09-07T15:29:09;30.40;36.20
5192;DHT22;2615;44.524;11.284;2023-09-07T15:31:39;30.40;36.30
5192;DHT22;2615;44.524;11.284;2023-09-07T15:34:08;30.40;36.40
5192;DHT22;2615;44.524;11.284;2023-09-07T15:36:36;30.30;36.40
5192;DHT22;2615;44.524;11.284;2023-09-07T15:39:05;30.40;36.50
5192;DHT22;2615;44.524;11.284;2023-09-07T15:41:33;30.40;36.50
5192;DHT22;2615;44.524;11.284;2023-09-07T15:44:01;30.60;36.40
5192;DHT22;2615;44.524;11.284;2023-09-07T15:46:30;30.90;36.40
5192;DHT22;2615;44.524;11.284;2023-09-07T15:48:59;31.10;36.40
5192;DHT22;2615;44.524;11.284;2023-09-07T15:51:27;31.40;36.30
5192;DHT22;2615;44.524;11.284;2023-09-07T15:53:55;31.60;36.10
5192;DHT22;2615;44.524;11.284;2023-09-07T15:56:23;31.70;36.10